Time;durP1;ratioP1;P1;durP2;ratioP2;P2;SDS_P1;SDS_P2;PMS_P1;PMS_P2;Temp;Humidity;BMP_temperature;BMP_pressure;BME280_temperature;BME280_humidity;BME280_pressure;Samples;Min_cycle;Max_cycle;Signal;HPM_P1;HPM_P2
2022/05/12 00:00:04;;;;;;;0.00;0.00;;;;;;;;;;1746618;28;20209;-69
2022/05/12 00:00:56;;;;;;;0.00;0.00;;;;;;;;;;1740624;28;20230;-69
2022/05/12 00:01:47;;;;;;;0.00;0.00;;;;;;;;;;1744015;28;20226;-69
2022/05/12 00:02:39;;;;;;;0.00;0.00;;;;;;;;;;1746488;28;20223;-70
2022/05/12 00:03:31;;;;;;;0.00;0.00;;;;;;;;;;1746095;28;20211;-70
2022/05/12 00:04:26;;;;;;;0.00;0.00;;;;;;;;;;1745012;28;20478;-69
2022/05/12 00:05:17;;;;;;;0.00;0.00;;;;;;;;;;1736835;28;20277;-69
2022/05/12 00:06:09;;;;;;;0.00;0.00;;;;;;;;;;1743394;28;20240;-70
2022/05/12 00:07:01;;;;;;;0.00;0.00;;;;;;;;;;1745053;28;20680;-69
2022/05/12 00:07:53;;;;;;;0.00;0.00;;;;;;;;;;1744714;28;20271;-69
2022/05/12 00:08:44;;;;;;;0.00;0.00;;;;;;;;;;1744428;28;20221;-69
2022/05/12 00:09:36;;;;;;;0.00;0.00;;;;;;;;;;1743101;28;20688;-69
2022/05/12 00:10:27;;;;;;;0.00;0.00;;;;;;;;;;1742561;28;20704;-69
2022/05/12 00:11:19;;;;;;;0.00;0.00;;;;;;;;;;1746416;28;20694;-69
2022/05/12 00:12:11;;;;;;;0.00;0.00;;;;;;;;;;1744545;28;20238;-70
2022/05/12 00:13:03;;;;;;;0.10;0.10;;;;;;;;;;1744685;28;20384;-69
2022/05/12 00:13:54;;;;;;;0.00;0.00;;;;;;;;;;1744697;28;20202;-69
2022/05/12 00:14:47;;;;;;;0.00;0.00;;;;;;;;;;1748323;28;20726;-69
2022/05/12 00:15:39;;;;;;;0.00;0.00;;;;;;;;;;1742514;28;20248;-69
2022/05/12 00:16:31;;;;;;;0.00;0.00;;;;;;;;;;1744580;28;20213;-70
2022/05/12 00:17:23;;;;;;;0.00;0.00;;;;;;;;;;1744121;28;20202;-69
2022/05/12 00:18:15;;;;;;;0.00;0.00;;;;;;;;;;1747705;28;20217;-70
2022/05/12 00:19:07;;;;;;;0.00;0.00;;;;;;;;;;1742567;28;20885;-70
2022/05/12 00:19:58;;;;;;;0.10;0.10;;;;;;;;;;1744541;28;20213;-70
2022/05/12 00:20:51;;;;;;;0.00;0.00;;;;;;;;;;1741816;28;20254;-69
2022/05/12 00:21:43;;;;;;;0.00;0.00;;;;;;;;;;1745443;28;20297;-69
2022/05/12 00:22:35;;;;;;;0.00;0.00;;;;;;;;;;1743367;28;20207;-69
2022/05/12 00:23:28;;;;;;;0.00;0.00;;;;;;;;;;1745041;28;20237;-70
2022/05/12 00:24:20;;;;;;;0.00;0.00;;;;;;;;;;1746756;28;20258;-69
2022/05/12 00:25:12;;;;;;;0.00;0.00;;;;;;;;;;1744750;28;20604;-70
2022/05/12 00:26:04;;;;;;;0.00;0.00;;;;;;;;;;1741433;28;20312;-69
2022/05/12 00:26:56;;;;;;;0.00;0.00;;;;;;;;;;1744860;28;20202;-69
2022/05/12 00:27:48;;;;;;;0.00;0.00;;;;;;;;;;1747758;28;20205;-69
2022/05/12 00:28:39;;;;;;;0.00;0.00;;;;;;;;;;1744986;28;20229;-69
2022/05/12 00:29:32;;;;;;;0.00;0.00;;;;;;;;;;1743739;28;20255;-69
2022/05/12 00:30:23;;;;;;;0.00;0.00;;;;;;;;;;1743084;28;20210;-69
2022/05/12 00:31:17;;;;;;;0.00;0.00;;;;;;;;;;1746329;28;20732;-69
2022/05/12 00:32:08;;;;;;;0.00;0.00;;;;;;;;;;1744950;28;20416;-69
2022/05/12 00:33:01;;;;;;;0.00;0.00;;;;;;;;;;1747942;28;20209;-69
2022/05/12 00:33:52;;;;;;;0.00;0.00;;;;;;;;;;1744717;28;20560;-69
2022/05/12 00:34:45;;;;;;;0.03;0.03;;;;;;;;;;1745474;28;20742;-68
2022/05/12 00:35:36;;;;;;;0.00;0.00;;;;;;;;;;1742755;28;20242;-68
2022/05/12 00:36:28;;;;;;;0.00;0.00;;;;;;;;;;1748430;28;20209;-68
2022/05/12 00:37:19;;;;;;;0.00;0.00;;;;;;;;;;1744793;28;20206;-69
2022/05/12 00:38:12;;;;;;;0.00;0.00;;;;;;;;;;1746274;28;20399;-68
2022/05/12 00:39:03;;;;;;;0.00;0.00;;;;;;;;;;1745159;28;20830;-68
2022/05/12 00:39:55;;;;;;;0.00;0.00;;;;;;;;;;1744245;28;20264;-69
2022/05/12 00:40:49;;;;;;;0.00;0.00;;;;;;;;;;1741631;28;20230;-69
2022/05/12 00:41:41;;;;;;;0.00;0.00;;;;;;;;;;1746983;28;20214;-69
2022/05/12 00:42:32;;;;;;;0.00;0.00;;;;;;;;;;1745524;28;20206;-68
2022/05/12 00:43:36;;;;;;;0.00;0.00;;;;;;;;;;1747037;28;20221;-70
2022/05/12 00:44:27;;;;;;;0.00;0.00;;;;;;;;;;1743041;28;20279;-68
2022/05/12 00:45:19;;;;;;;0.00;0.00;;;;;;;;;;1736847;28;20227;-69
2022/05/12 00:46:11;;;;;;;0.00;0.00;;;;;;;;;;1746317;28;20667;-69
2022/05/12 00:47:05;;;;;;;0.00;0.00;;;;;;;;;;1745355;28;20479;-69
2022/05/12 00:47:57;;;;;;;0.00;0.00;;;;;;;;;;1743111;28;20202;-68
2022/05/12 00:48:49;;;;;;;0.00;0.00;;;;;;;;;;1745049;28;20196;-71
2022/05/12 00:49:41;;;;;;;0.00;0.00;;;;;;;;;;1745534;28;20683;-69
2022/05/12 00:50:36;;;;;;;0.00;0.00;;;;;;;;;;1741990;28;20534;-70
2022/05/12 00:51:28;;;;;;;0.00;0.00;;;;;;;;;;1744681;28;20841;-69
2022/05/12 00:52:22;;;;;;;0.00;0.00;;;;;;;;;;1744111;28;20619;-68
2022/05/12 00:53:14;;;;;;;0.00;0.00;;;;;;;;;;1744263;28;20207;-69
2022/05/12 00:54:07;;;;;;;0.00;0.00;;;;;;;;;;1744441;28;20542;-69
2022/05/12 00:55:01;;;;;;;0.00;0.00;;;;;;;;;;1745111;28;20314;-70
2022/05/12 00:55:54;;;;;;;0.00;0.00;;;;;;;;;;1743869;28;20727;-70
2022/05/12 00:56:45;;;;;;;0.00;0.00;;;;;;;;;;1746004;28;20217;-70
2022/05/12 00:57:39;;;;;;;0.00;0.00;;;;;;;;;;1744751;28;20198;-69
2022/05/12 00:58:32;;;;;;;0.00;0.00;;;;;;;;;;1744135;28;20202;-69
2022/05/12 00:59:26;;;;;;;0.00;0.00;;;;;;;;;;1747744;28;20199;-69
2022/05/12 01:00:18;;;;;;;0.00;0.00;;;;;;;;;;1742491;28;20569;-69
2022/05/12 01:01:11;;;;;;;0.00;0.00;;;;;;;;;;1744745;28;20201;-68
2022/05/12 01:02:06;;;;;;;0.00;0.00;;;;;;;;;;1745062;28;20735;-69
2022/05/12 01:02:59;;;;;;;0.00;0.00;;;;;;;;;;1743128;28;20766;-69
2022/05/12 01:03:51;;;;;;;0.00;0.00;;;;;;;;;;1744538;28;20202;-69
2022/05/12 01:04:44;;;;;;;0.00;0.00;;;;;;;;;;1747480;28;20198;-70
2022/05/12 01:05:35;;;;;;;0.00;0.00;;;;;;;;;;1742853;28;20434;-70
2022/05/12 01:06:27;;;;;;;0.00;0.00;;;;;;;;;;1748428;28;20288;-69
2022/05/12 01:07:18;;;;;;;0.00;0.00;;;;;;;;;;1744452;28;20214;-70
2022/05/12 01:08:11;;;;;;;0.00;0.00;;;;;;;;;;1747333;28;20199;-70
2022/05/12 01:09:03;;;;;;;0.00;0.00;;;;;;;;;;1743685;28;20205;-69
2022/05/12 01:09:55;;;;;;;0.00;0.00;;;;;;;;;;1747273;28;20252;-69
2022/05/12 01:10:48;;;;;;;0.00;0.00;;;;;;;;;;1738147;28;20235;-69
2022/05/12 01:11:40;;;;;;;0.00;0.00;;;;;;;;;;1745029;28;20734;-71
2022/05/12 01:12:32;;;;;;;0.00;0.00;;;;;;;;;;1744456;28;20190;-68
2022/05/12 01:13:24;;;;;;;0.00;0.00;;;;;;;;;;1745060;28;20668;-69
2022/05/12 01:14:15;;;;;;;0.00;0.00;;;;;;;;;;1745651;28;21159;-70
2022/05/12 01:15:09;;;;;;;0.00;0.00;;;;;;;;;;1745379;28;20320;-68
2022/05/12 01:16:02;;;;;;;0.00;0.00;;;;;;;;;;1741707;28;20714;-69
2022/05/12 01:16:55;;;;;;;0.00;0.00;;;;;;;;;;1744913;28;20206;-69
2022/05/12 01:17:48;;;;;;;0.00;0.00;;;;;;;;;;1744797;28;20202;-69
2022/05/12 01:18:41;;;;;;;0.00;0.00;;;;;;;;;;1737690;28;20199;-70
2022/05/12 01:19:33;;;;;;;0.00;0.00;;;;;;;;;;1746550;28;20256;-68
2022/05/12 01:20:25;;;;;;;0.00;0.00;;;;;;;;;;1742567;28;20217;-69
2022/05/12 01:21:17;;;;;;;0.00;0.00;;;;;;;;;;1743434;28;20686;-69
2022/05/12 01:22:10;;;;;;;0.00;0.00;;;;;;;;;;1745251;28;20218;-69
2022/05/12 01:23:05;;;;;;;0.00;0.00;;;;;;;;;;1743808;28;20202;-69
2022/05/12 01:24:00;;;;;;;0.03;0.03;;;;;;;;;;1744820;28;20714;-70
2022/05/12 01:24:51;;;;;;;0.00;0.00;;;;;;;;;;1745009;28;20203;-69
2022/05/12 01:25:43;;;;;;;0.00;0.00;;;;;;;;;;1741493;28;20263;-69
2022/05/12 01:26:34;;;;;;;0.00;0.00;;;;;;;;;;1745105;28;20202;-68
2022/05/12 01:27:29;;;;;;;0.00;0.00;;;;;;;;;;1742742;28;20744;-69
2022/05/12 01:28:21;;;;;;;0.00;0.00;;;;;;;;;;1744732;28;20294;-68
2022/05/12 01:29:13;;;;;;;0.00;0.00;;;;;;;;;;1744087;28;20251;-69
2022/05/12 01:30:05;;;;;;;0.00;0.00;;;;;;;;;;1744754;28;20668;-69
2022/05/12 01:30:57;;;;;;;0.00;0.00;;;;;;;;;;1741954;28;20234;-69
2022/05/12 01:31:48;;;;;;;0.00;0.00;;;;;;;;;;1744526;28;20478;-69
2022/05/12 01:32:43;;;;;;;0.00;0.00;;;;;;;;;;1744466;28;20293;-70
2022/05/12 01:33:35;;;;;;;0.00;0.00;;;;;;;;;;1744091;28;20195;-68
2022/05/12 01:34:27;;;;;;;0.00;0.00;;;;;;;;;;1743992;28;20206;-69
2022/05/12 01:35:19;;;;;;;0.00;0.00;;;;;;;;;;1736344;28;20234;-69
2022/05/12 01:36:12;;;;;;;0.00;0.00;;;;;;;;;;1739733;28;20204;-68
2022/05/12 01:37:03;;;;;;;0.00;0.00;;;;;;;;;;1744827;28;20210;-69
2022/05/12 01:37:55;;;;;;;0.00;0.00;;;;;;;;;;1742262;28;20195;-69
2022/05/12 01:38:47;;;;;;;0.00;0.00;;;;;;;;;;1744897;28;20206;-68
2022/05/12 01:39:40;;;;;;;0.00;0.00;;;;;;;;;;1745549;28;20434;-70
2022/05/12 01:40:31;;;;;;;0.00;0.00;;;;;;;;;;1743395;28;22441;-68
2022/05/12 01:41:24;;;;;;;0.00;0.00;;;;;;;;;;1746418;28;20203;-69
2022/05/12 01:42:15;;;;;;;0.00;0.00;;;;;;;;;;1745807;28;20206;-69
2022/05/12 01:43:07;;;;;;;0.00;0.00;;;;;;;;;;1746276;28;20201;-70
2022/05/12 01:44:00;;;;;;;0.00;0.00;;;;;;;;;;1746229;28;20206;-70
2022/05/12 01:44:52;;;;;;;0.00;0.00;;;;;;;;;;1744073;28;20259;-68
2022/05/12 01:45:44;;;;;;;0.00;0.00;;;;;;;;;;1743331;28;20244;-69
2022/05/12 01:46:38;;;;;;;0.00;0.00;;;;;;;;;;1742297;28;20583;-68
2022/05/12 01:47:29;;;;;;;0.00;0.00;;;;;;;;;;1745031;28;20206;-71
2022/05/12 01:48:22;;;;;;;0.00;0.00;;;;;;;;;;1745691;28;20202;-69
2022/05/12 01:49:13;;;;;;;0.00;0.00;;;;;;;;;;1744968;28;20259;-69
2022/05/12 01:50:06;;;;;;;0.00;0.00;;;;;;;;;;1741110;28;20443;-70
2022/05/12 01:50:57;;;;;;;0.00;0.00;;;;;;;;;;1740773;28;20235;-69
2022/05/12 01:51:52;;;;;;;0.10;0.10;;;;;;;;;;1745674;28;20545;-72
2022/05/12 01:52:44;;;;;;;0.00;0.00;;;;;;;;;;1742175;28;20202;-68
2022/05/12 01:53:37;;;;;;;0.00;0.00;;;;;;;;;;1745836;28;20648;-69
2022/05/12 01:54:28;;;;;;;0.00;0.00;;;;;;;;;;1744626;28;20206;-69
2022/05/12 01:55:23;;;;;;;0.00;0.00;;;;;;;;;;1741407;28;20884;-68
2022/05/12 01:56:15;;;;;;;0.00;0.00;;;;;;;;;;1745028;28;20202;-69
2022/05/12 01:57:07;;;;;;;0.00;0.00;;;;;;;;;;1746139;28;20203;-68
2022/05/12 01:57:58;;;;;;;0.00;0.00;;;;;;;;;;1745473;28;20209;-71
2022/05/12 01:58:50;;;;;;;0.00;0.00;;;;;;;;;;1744913;28;20289;-69
2022/05/12 01:59:41;;;;;;;0.00;0.00;;;;;;;;;;1745648;28;20256;-68
2022/05/12 02:00:34;;;;;;;0.00;0.00;;;;;;;;;;1743765;28;20265;-70
2022/05/12 02:01:25;;;;;;;0.00;0.00;;;;;;;;;;1743092;28;20203;-69
2022/05/12 02:02:17;;;;;;;0.10;0.10;;;;;;;;;;1746310;28;20206;-72
2022/05/12 02:03:09;;;;;;;0.00;0.00;;;;;;;;;;1748473;28;20761;-71
2022/05/12 02:04:02;;;;;;;0.00;0.00;;;;;;;;;;1745467;28;20622;-69
2022/05/12 02:04:53;;;;;;;0.00;0.00;;;;;;;;;;1741402;28;20576;-70
2022/05/12 02:05:46;;;;;;;0.00;0.00;;;;;;;;;;1728694;28;20232;-72
2022/05/12 02:06:37;;;;;;;0.00;0.00;;;;;;;;;;1739048;28;20207;-69
2022/05/12 02:07:30;;;;;;;0.00;0.00;;;;;;;;;;1741326;28;20205;-71
2022/05/12 02:08:21;;;;;;;0.00;0.00;;;;;;;;;;1745617;28;20575;-71
2022/05/12 02:09:13;;;;;;;0.00;0.00;;;;;;;;;;1745121;28;20206;-70
2022/05/12 02:10:05;;;;;;;0.00;0.00;;;;;;;;;;1744958;28;20656;-71
2022/05/12 02:10:59;;;;;;;0.00;0.00;;;;;;;;;;1742220;28;20638;-69
2022/05/12 02:11:50;;;;;;;0.00;0.00;;;;;;;;;;1745707;28;20226;-68
2022/05/12 02:12:42;;;;;;;0.00;0.00;;;;;;;;;;1745912;28;20297;-69
2022/05/12 02:13:34;;;;;;;0.00;0.00;;;;;;;;;;1745772;28;20226;-69
2022/05/12 02:14:27;;;;;;;0.00;0.00;;;;;;;;;;1745840;28;20214;-70
2022/05/12 02:15:19;;;;;;;0.00;0.00;;;;;;;;;;1744005;28;20730;-68
2022/05/12 02:16:11;;;;;;;0.00;0.00;;;;;;;;;;1745113;28;20560;-70
2022/05/12 02:17:03;;;;;;;0.00;0.00;;;;;;;;;;1745715;28;20230;-68
2022/05/12 02:17:54;;;;;;;0.00;0.00;;;;;;;;;;1744983;28;20213;-68
2022/05/12 02:18:46;;;;;;;0.00;0.00;;;;;;;;;;1745907;28;20497;-71
2022/05/12 02:19:37;;;;;;;0.00;0.00;;;;;;;;;;1744726;28;20251;-69
2022/05/12 02:20:30;;;;;;;0.00;0.00;;;;;;;;;;1737186;28;20695;-70
2022/05/12 02:21:21;;;;;;;0.00;0.00;;;;;;;;;;1743460;28;20589;-69
2022/05/12 02:22:13;;;;;;;0.00;0.00;;;;;;;;;;1745794;28;20198;-72
2022/05/12 02:23:04;;;;;;;0.00;0.00;;;;;;;;;;1742798;28;20206;-69
2022/05/12 02:23:57;;;;;;;0.00;0.00;;;;;;;;;;1745272;28;20202;-69
2022/05/12 02:24:48;;;;;;;0.00;0.00;;;;;;;;;;1746240;28;20203;-69
2022/05/12 02:25:40;;;;;;;0.00;0.00;;;;;;;;;;1743362;28;20751;-70
2022/05/12 02:26:33;;;;;;;0.00;0.00;;;;;;;;;;1745329;28;20592;-70
2022/05/12 02:27:25;;;;;;;0.00;0.00;;;;;;;;;;1744893;28;20735;-68
2022/05/12 02:28:16;;;;;;;0.00;0.00;;;;;;;;;;1745482;28;20213;-68
2022/05/12 02:29:08;;;;;;;0.00;0.00;;;;;;;;;;1744605;28;20546;-70
2022/05/12 02:30:00;;;;;;;0.00;0.00;;;;;;;;;;1742619;28;20210;-71
2022/05/12 02:30:52;;;;;;;0.00;0.00;;;;;;;;;;1743136;28;20706;-70
2022/05/12 02:31:43;;;;;;;0.00;0.00;;;;;;;;;;1743964;28;20218;-69
2022/05/12 02:32:35;;;;;;;0.00;0.00;;;;;;;;;;1744727;28;20294;-68
2022/05/12 02:33:26;;;;;;;0.00;0.00;;;;;;;;;;1746037;28;20210;-69
2022/05/12 02:34:19;;;;;;;0.00;0.00;;;;;;;;;;1743516;28;20758;-69
2022/05/12 02:35:10;;;;;;;0.00;0.00;;;;;;;;;;1744130;28;20202;-70
2022/05/12 02:36:03;;;;;;;0.10;0.10;;;;;;;;;;1742196;28;20250;-67
2022/05/12 02:37:00;;;;;;;0.00;0.00;;;;;;;;;;1745959;28;20209;-66
2022/05/12 02:37:52;;;;;;;0.00;0.00;;;;;;;;;;1743915;28;20191;-67
2022/05/12 02:38:43;;;;;;;0.00;0.00;;;;;;;;;;1743056;28;20206;-67
2022/05/12 02:39:36;;;;;;;0.00;0.00;;;;;;;;;;1744195;28;20198;-67
2022/05/12 02:40:28;;;;;;;0.00;0.00;;;;;;;;;;1743261;28;20680;-67
2022/05/12 02:41:20;;;;;;;0.00;0.00;;;;;;;;;;1741725;28;20206;-67
2022/05/12 02:42:13;;;;;;;0.00;0.00;;;;;;;;;;1745028;28;20237;-67
2022/05/12 02:43:22;;;;;;;0.00;0.00;;;;;;;;;;1745211;28;20298;-67
2022/05/12 02:44:14;;;;;;;0.00;0.00;;;;;;;;;;1745704;28;20626;-67
2022/05/12 02:45:07;;;;;;;0.00;0.00;;;;;;;;;;1745830;28;20212;-67
2022/05/12 02:45:59;;;;;;;0.00;0.00;;;;;;;;;;1743022;28;20234;-66
2022/05/12 02:46:51;;;;;;;0.00;0.00;;;;;;;;;;1747973;28;20225;-67
2022/05/12 02:47:43;;;;;;;0.00;0.00;;;;;;;;;;1746948;28;20233;-67
2022/05/12 02:48:35;;;;;;;0.00;0.00;;;;;;;;;;1744908;28;20498;-66
2022/05/12 02:49:27;;;;;;;0.03;0.03;;;;;;;;;;1744883;28;20305;-67
2022/05/12 02:50:19;;;;;;;0.00;0.00;;;;;;;;;;1736783;28;20598;-66
2022/05/12 02:51:11;;;;;;;0.00;0.00;;;;;;;;;;1744547;28;20206;-67
2022/05/12 02:52:04;;;;;;;0.00;0.00;;;;;;;;;;1745778;28;20759;-67
2022/05/12 02:52:56;;;;;;;0.00;0.00;;;;;;;;;;1741530;28;20202;-67
2022/05/12 02:53:48;;;;;;;0.00;0.00;;;;;;;;;;1745501;28;20206;-66
2022/05/12 02:54:40;;;;;;;0.00;0.00;;;;;;;;;;1743618;28;20205;-67
2022/05/12 02:55:31;;;;;;;0.00;0.00;;;;;;;;;;1743043;28;20700;-67
2022/05/12 02:56:25;;;;;;;0.00;0.00;;;;;;;;;;1742247;28;20202;-67
2022/05/12 02:57:18;;;;;;;0.00;0.00;;;;;;;;;;1745117;28;20210;-67
2022/05/12 02:58:11;;;;;;;0.00;0.00;;;;;;;;;;1744349;28;20213;-67
2022/05/12 02:59:02;;;;;;;0.00;0.00;;;;;;;;;;1744924;28;20225;-67
2022/05/12 02:59:54;;;;;;;0.00;0.00;;;;;;;;;;1741984;28;20568;-67
2022/05/12 03:00:46;;;;;;;0.00;0.00;;;;;;;;;;1742563;28;20234;-66
2022/05/12 03:01:38;;;;;;;0.00;0.00;;;;;;;;;;1743907;28;20209;-67
2022/05/12 03:02:32;;;;;;;0.00;0.00;;;;;;;;;;1744424;28;20868;-67
2022/05/12 03:03:25;;;;;;;0.00;0.00;;;;;;;;;;1745666;28;20616;-67
2022/05/12 03:04:16;;;;;;;0.00;0.00;;;;;;;;;;1744199;28;20210;-67
2022/05/12 03:05:09;;;;;;;0.00;0.00;;;;;;;;;;1745859;28;20202;-67
2022/05/12 03:06:00;;;;;;;0.00;0.00;;;;;;;;;;1741502;28;20246;-67
2022/05/12 03:06:54;;;;;;;0.00;0.00;;;;;;;;;;1744949;28;20198;-67
2022/05/12 03:07:45;;;;;;;0.00;0.00;;;;;;;;;;1744451;28;20206;-67
2022/05/12 03:08:38;;;;;;;0.00;0.00;;;;;;;;;;1745650;28;20243;-67
2022/05/12 03:09:29;;;;;;;0.00;0.00;;;;;;;;;;1741654;28;20299;-67
2022/05/12 03:10:23;;;;;;;0.00;0.00;;;;;;;;;;1743354;28;20640;-67
2022/05/12 03:11:14;;;;;;;0.00;0.00;;;;;;;;;;1740959;28;20613;-67
2022/05/12 03:12:07;;;;;;;0.00;0.00;;;;;;;;;;1745018;28;20246;-67
2022/05/12 03:12:59;;;;;;;0.00;0.00;;;;;;;;;;1742874;28;20252;-68
2022/05/12 03:13:51;;;;;;;0.00;0.00;;;;;;;;;;1745433;28;20237;-68
2022/05/12 03:14:43;;;;;;;0.00;0.00;;;;;;;;;;1744510;28;20564;-67
2022/05/12 03:15:35;;;;;;;0.00;0.00;;;;;;;;;;1743482;28;20537;-67
2022/05/12 03:16:26;;;;;;;0.00;0.00;;;;;;;;;;1742255;28;20211;-67
2022/05/12 03:17:19;;;;;;;0.00;0.00;;;;;;;;;;1745051;28;20199;-67
2022/05/12 03:18:10;;;;;;;0.00;0.00;;;;;;;;;;1743399;28;20573;-68
2022/05/12 03:19:03;;;;;;;0.00;0.00;;;;;;;;;;1744736;28;20218;-67
2022/05/12 03:19:55;;;;;;;0.00;0.00;;;;;;;;;;1741815;28;20708;-67
2022/05/12 03:20:47;;;;;;;0.00;0.00;;;;;;;;;;1742182;28;20256;-67
2022/05/12 03:21:38;;;;;;;0.00;0.00;;;;;;;;;;1742809;28;20690;-67
2022/05/12 03:22:31;;;;;;;0.00;0.00;;;;;;;;;;1743845;28;20454;-67
2022/05/12 03:23:22;;;;;;;0.00;0.00;;;;;;;;;;1745054;28;20211;-67
2022/05/12 03:24:14;;;;;;;0.00;0.00;;;;;;;;;;1744672;28;20198;-67
2022/05/12 03:25:06;;;;;;;0.00;0.00;;;;;;;;;;1745253;28;20213;-67
2022/05/12 03:25:58;;;;;;;0.00;0.00;;;;;;;;;;1742885;28;20232;-67
2022/05/12 03:26:50;;;;;;;0.00;0.00;;;;;;;;;;1745695;28;20578;-67
2022/05/12 03:27:42;;;;;;;0.00;0.00;;;;;;;;;;1744489;28;20301;-66
2022/05/12 03:28:35;;;;;;;0.00;0.00;;;;;;;;;;1745001;28;20231;-67
2022/05/12 03:29:27;;;;;;;0.00;0.00;;;;;;;;;;1741777;28;20206;-67
2022/05/12 03:30:20;;;;;;;0.00;0.00;;;;;;;;;;1736496;28;20446;-68
2022/05/12 03:31:12;;;;;;;0.00;0.00;;;;;;;;;;1742689;28;20202;-67
2022/05/12 03:32:05;;;;;;;0.00;0.00;;;;;;;;;;1745084;28;20704;-67
2022/05/12 03:32:57;;;;;;;0.00;0.00;;;;;;;;;;1744096;28;20202;-67
2022/05/12 03:33:48;;;;;;;0.00;0.00;;;;;;;;;;1745620;28;20199;-67
2022/05/12 03:34:40;;;;;;;0.00;0.00;;;;;;;;;;1741682;28;20293;-66
2022/05/12 03:35:33;;;;;;;0.00;0.00;;;;;;;;;;1743201;28;20760;-67
2022/05/12 03:36:25;;;;;;;0.00;0.00;;;;;;;;;;1744402;28;20229;-67
2022/05/12 03:37:17;;;;;;;0.00;0.00;;;;;;;;;;1744402;28;20213;-67
2022/05/12 03:38:09;;;;;;;0.00;0.00;;;;;;;;;;1743540;28;20225;-68
2022/05/12 03:39:00;;;;;;;0.00;0.00;;;;;;;;;;1743979;28;20229;-69
2022/05/12 03:39:52;;;;;;;0.00;0.00;;;;;;;;;;1744362;28;20207;-68
2022/05/12 03:40:44;;;;;;;0.00;0.00;;;;;;;;;;1741725;28;20261;-68
2022/05/12 03:41:36;;;;;;;0.00;0.00;;;;;;;;;;1742772;28;20198;-68
2022/05/12 03:42:27;;;;;;;0.00;0.00;;;;;;;;;;1744476;28;20213;-68
2022/05/12 03:45:38;;;;;;;0.00;0.00;;;;;;;;;;1737091;28;20266;-68
2022/05/12 03:46:31;;;;;;;0.00;0.00;;;;;;;;;;1742447;28;20671;-68
2022/05/12 03:47:24;;;;;;;0.00;0.00;;;;;;;;;;1744258;28;20206;-68
2022/05/12 03:48:15;;;;;;;0.00;0.00;;;;;;;;;;1745180;28;20431;-68
2022/05/12 03:49:08;;;;;;;0.00;0.00;;;;;;;;;;1744903;28;20289;-68
2022/05/12 03:50:01;;;;;;;0.00;0.00;;;;;;;;;;1737498;28;20207;-67
2022/05/12 03:50:53;;;;;;;0.00;0.00;;;;;;;;;;1738604;28;20257;-67
2022/05/12 03:51:45;;;;;;;0.00;0.00;;;;;;;;;;1744786;28;20218;-68
2022/05/12 03:52:40;;;;;;;0.00;0.00;;;;;;;;;;1743744;28;20194;-68
2022/05/12 03:53:31;;;;;;;0.00;0.00;;;;;;;;;;1744559;28;20593;-68
2022/05/12 03:54:23;;;;;;;0.00;0.00;;;;;;;;;;1744170;28;20261;-67
2022/05/12 03:55:16;;;;;;;0.00;0.00;;;;;;;;;;1744389;28;20198;-67
2022/05/12 03:56:09;;;;;;;0.00;0.00;;;;;;;;;;1742302;28;20250;-67
2022/05/12 03:57:00;;;;;;;0.00;0.00;;;;;;;;;;1738366;28;20290;-67
2022/05/12 03:57:55;;;;;;;0.00;0.00;;;;;;;;;;1742373;28;20203;-67
2022/05/12 03:58:46;;;;;;;0.00;0.00;;;;;;;;;;1745213;28;20289;-67
2022/05/12 03:59:40;;;;;;;0.00;0.00;;;;;;;;;;1743913;28;20199;-67
2022/05/12 04:00:32;;;;;;;0.00;0.00;;;;;;;;;;1736337;28;21143;-67
2022/05/12 04:01:24;;;;;;;0.00;0.00;;;;;;;;;;1742749;28;20497;-67
2022/05/12 04:02:16;;;;;;;0.00;0.00;;;;;;;;;;1743480;28;20202;-67
2022/05/12 04:03:08;;;;;;;0.00;0.00;;;;;;;;;;1743453;28;20206;-67
2022/05/12 04:03:59;;;;;;;0.00;0.00;;;;;;;;;;1744379;28;20206;-67
2022/05/12 04:04:52;;;;;;;0.00;0.00;;;;;;;;;;1744903;28;20198;-67
2022/05/12 04:05:43;;;;;;;0.00;0.00;;;;;;;;;;1742835;28;20230;-68
2022/05/12 04:06:36;;;;;;;0.00;0.00;;;;;;;;;;1745393;28;20218;-67
2022/05/12 04:07:27;;;;;;;0.00;0.00;;;;;;;;;;1744371;28;20202;-68
2022/05/12 04:08:19;;;;;;;0.00;0.00;;;;;;;;;;1741621;28;20194;-68
2022/05/12 04:09:10;;;;;;;0.00;0.00;;;;;;;;;;1742988;28;20320;-68
2022/05/12 04:10:02;;;;;;;0.00;0.00;;;;;;;;;;1744023;28;20664;-67
2022/05/12 04:10:54;;;;;;;0.00;0.00;;;;;;;;;;1741300;28;20568;-67
2022/05/12 04:11:46;;;;;;;0.00;0.00;;;;;;;;;;1743318;28;20330;-67
2022/05/12 04:12:37;;;;;;;0.00;0.00;;;;;;;;;;1743308;28;20206;-67
2022/05/12 04:13:29;;;;;;;0.00;0.00;;;;;;;;;;1745653;28;20633;-67
2022/05/12 04:14:21;;;;;;;0.00;0.00;;;;;;;;;;1743931;28;20217;-67
2022/05/12 04:15:15;;;;;;;0.00;0.00;;;;;;;;;;1743779;28;20229;-67
2022/05/12 04:16:07;;;;;;;0.00;0.00;;;;;;;;;;1743166;28;20604;-67
2022/05/12 04:17:00;;;;;;;0.00;0.00;;;;;;;;;;1745295;28;20226;-67
2022/05/12 04:17:58;;;;;;;0.00;0.00;;;;;;;;;;1742136;28;20198;-67
2022/05/12 04:18:52;;;;;;;0.00;0.00;;;;;;;;;;1744923;28;20212;-67
2022/05/12 04:19:44;;;;;;;0.00;0.00;;;;;;;;;;1744702;28;20198;-67
2022/05/12 04:20:37;;;;;;;0.00;0.00;;;;;;;;;;1741667;28;20237;-67
2022/05/12 04:21:30;;;;;;;0.00;0.00;;;;;;;;;;1743230;28;20206;-67
2022/05/12 04:22:22;;;;;;;0.00;0.00;;;;;;;;;;1744264;28;20255;-67
2022/05/12 04:23:13;;;;;;;0.00;0.00;;;;;;;;;;1744697;28;20206;-67
2022/05/12 04:24:05;;;;;;;0.00;0.00;;;;;;;;;;1744273;28;20212;-67
2022/05/12 04:24:57;;;;;;;0.00;0.00;;;;;;;;;;1741920;28;20210;-67
2022/05/12 04:25:50;;;;;;;0.00;0.00;;;;;;;;;;1741909;28;20466;-67
2022/05/12 04:26:41;;;;;;;0.00;0.00;;;;;;;;;;1745120;28;20206;-67
2022/05/12 04:27:35;;;;;;;0.00;0.00;;;;;;;;;;1743207;28;20229;-66
2022/05/12 04:28:27;;;;;;;0.00;0.00;;;;;;;;;;1744902;28;20202;-66
2022/05/12 04:29:19;;;;;;;0.00;0.00;;;;;;;;;;1743705;28;20281;-67
2022/05/12 04:30:11;;;;;;;0.00;0.00;;;;;;;;;;1745013;28;20240;-67
2022/05/12 04:31:05;;;;;;;0.00;0.00;;;;;;;;;;1740645;28;20238;-67
2022/05/12 04:31:59;;;;;;;0.00;0.00;;;;;;;;;;1744749;28;20228;-67
2022/05/12 04:32:51;;;;;;;0.00;0.00;;;;;;;;;;1741897;28;20207;-66
2022/05/12 04:35:11;;;;;;;0.00;0.00;;;;;;;;;;1741903;28;20244;-66
2022/05/12 04:36:02;;;;;;;0.00;0.00;;;;;;;;;;1741941;28;20231;-66
2022/05/12 04:36:54;;;;;;;0.00;0.00;;;;;;;;;;1745237;28;20573;-66
2022/05/12 04:37:47;;;;;;;0.00;0.00;;;;;;;;;;1753870;23;20187;-63
2022/05/12 04:38:39;;;;;;;0.00;0.00;;;;;;;;;;1745243;28;20205;-63
2022/05/12 04:39:31;;;;;;;0.00;0.00;;;;;;;;;;1742002;28;20203;-66
2022/05/12 04:40:25;;;;;;;0.00;0.00;;;;;;;;;;1742926;28;20283;-63
2022/05/12 04:41:16;;;;;;;0.00;0.00;;;;;;;;;;1742992;28;20203;-63
2022/05/12 04:42:08;;;;;;;0.00;0.00;;;;;;;;;;1745311;28;20202;-64
2022/05/12 04:43:00;;;;;;;0.00;0.00;;;;;;;;;;1742947;28;20260;-64
2022/05/12 04:43:52;;;;;;;0.00;0.00;;;;;;;;;;1745051;28;20225;-66
2022/05/12 04:44:43;;;;;;;0.00;0.00;;;;;;;;;;1744572;28;20205;-64
2022/05/12 04:45:36;;;;;;;0.00;0.00;;;;;;;;;;1741573;28;20279;-64
2022/05/12 04:46:29;;;;;;;0.00;0.00;;;;;;;;;;1741999;28;20742;-64
2022/05/12 04:47:21;;;;;;;0.00;0.00;;;;;;;;;;1744575;28;20241;-65
2022/05/12 04:48:13;;;;;;;0.00;0.00;;;;;;;;;;1750790;28;20233;-65
2022/05/12 04:49:06;;;;;;;0.00;0.00;;;;;;;;;;1750509;28;20201;-64
2022/05/12 04:49:58;;;;;;;0.00;0.00;;;;;;;;;;1751496;28;20213;-63
2022/05/12 04:50:50;;;;;;;0.00;0.00;;;;;;;;;;1746771;28;20253;-64
2022/05/12 04:51:42;;;;;;;0.00;0.00;;;;;;;;;;1751143;28;20247;-64
2022/05/12 04:52:34;;;;;;;0.00;0.00;;;;;;;;;;1751002;28;20209;-66
2022/05/12 04:53:26;;;;;;;0.00;0.00;;;;;;;;;;1752041;28;20266;-64
2022/05/12 04:54:18;;;;;;;0.00;0.00;;;;;;;;;;1751108;28;20202;-63
2022/05/12 04:55:10;;;;;;;0.10;0.10;;;;;;;;;;1749951;28;20205;-62
2022/05/12 04:56:02;;;;;;;0.00;0.00;;;;;;;;;;1746586;28;20244;-63
2022/05/12 04:56:53;;;;;;;0.00;0.00;;;;;;;;;;1751860;28;20197;-64
2022/05/12 04:57:46;;;;;;;0.00;0.00;;;;;;;;;;1749793;28;20539;-65
2022/05/12 04:58:37;;;;;;;0.00;0.00;;;;;;;;;;1751856;28;20208;-63
2022/05/12 04:59:29;;;;;;;0.00;0.00;;;;;;;;;;1750934;28;20210;-63
2022/05/12 05:00:22;;;;;;;0.00;0.00;;;;;;;;;;1742995;28;20206;-63
2022/05/12 05:01:14;;;;;;;0.00;0.00;;;;;;;;;;1748611;28;20209;-63
2022/05/12 05:02:07;;;;;;;0.00;0.00;;;;;;;;;;1751731;28;20197;-65
2022/05/12 05:02:59;;;;;;;0.00;0.00;;;;;;;;;;1750370;28;20212;-65
2022/05/12 05:03:50;;;;;;;0.00;0.00;;;;;;;;;;1751013;28;20289;-65
2022/05/12 05:04:43;;;;;;;0.00;0.00;;;;;;;;;;1750438;28;20945;-64
2022/05/12 05:05:34;;;;;;;0.00;0.00;;;;;;;;;;1749521;28;20665;-66
2022/05/12 05:06:27;;;;;;;0.00;0.00;;;;;;;;;;1750949;28;20221;-65
2022/05/12 05:07:18;;;;;;;0.00;0.00;;;;;;;;;;1750756;28;20206;-64
2022/05/12 05:08:13;;;;;;;0.00;0.00;;;;;;;;;;1750863;28;20623;-64
2022/05/12 05:09:05;;;;;;;0.00;0.00;;;;;;;;;;1750119;28;20717;-64
2022/05/12 05:09:58;;;;;;;0.00;0.00;;;;;;;;;;1746932;28;20197;-65
2022/05/12 05:10:49;;;;;;;0.00;0.00;;;;;;;;;;1747971;28;20237;-63
2022/05/12 05:11:42;;;;;;;0.00;0.00;;;;;;;;;;1752069;28;20251;-65
2022/05/12 05:12:33;;;;;;;0.00;0.00;;;;;;;;;;1749947;28;20205;-64
2022/05/12 05:13:25;;;;;;;0.00;0.00;;;;;;;;;;1751283;28;20276;-63
2022/05/12 05:14:16;;;;;;;0.00;0.00;;;;;;;;;;1752557;28;20205;-65
2022/05/12 05:15:09;;;;;;;0.00;0.00;;;;;;;;;;1753230;28;20288;-62
2022/05/12 05:16:02;;;;;;;0.00;0.00;;;;;;;;;;1749665;28;20244;-63
2022/05/12 05:16:53;;;;;;;0.00;0.00;;;;;;;;;;1752889;28;20701;-64